Wolco, Oklahoma
Current Conditions -  °F | °C
As of 4:33 AM on Thursday 18 Dec 2014 (Local Time) from KBVO Reporting Station
Haze Haze  
Wind Chill: 33°   Ceiling: 300
Heat Index: 33°   Visibility: 3mi
Dew Point: 33°   Wind: 3mph
Humidity: 100%   Direction: 60°ENE
Pressure: 30.17"   Gusts: NA
Location:  36.5242°N, 96.1387°W
Report Text: KBVO 181033Z AUTO 06003KT 3SM BR OVC003 01/01 A3017 RMK AO2 T00060006
Loading
Personal Weather Stations






























Interactive Weather Map New forecast layout! Learn more

10-Day Weather Forecast

Advertisements
Track Severe Weather on mobile